createdAt,value
2022-11-21T11:26:28.964Z,13.32
2022-11-21T11:29:14.639Z,11.18
2022-11-21T11:31:46.012Z,10.57
2022-11-21T11:34:16.616Z,8.43
2022-11-21T11:36:56.818Z,9.10
2022-11-21T11:39:41.295Z,7.50
2022-11-21T11:43:06.660Z,7.88
2022-11-21T11:46:17.740Z,6.30
2022-11-21T11:49:11.468Z,6.18
2022-11-21T11:54:10.170Z,6.05
2022-11-21T11:56:39.769Z,5.25
2022-11-21T11:59:18.092Z,4.88
2022-11-21T12:01:54.855Z,5.50
2022-11-21T12:04:26.560Z,4.22
2022-11-21T12:10:00.839Z,4.20
2022-11-21T12:15:29.580Z,5.05
2022-11-21T12:18:13.083Z,5.88
2022-11-21T12:20:53.801Z,4.90
2022-11-21T12:23:23.402Z,4.53
2022-11-21T12:26:10.872Z,4.68
2022-11-21T12:28:54.280Z,4.55
2022-11-21T12:31:31.203Z,4.45
2022-11-21T12:34:12.805Z,3.80
2022-11-21T12:36:48.029Z,3.78
2022-11-21T12:39:55.226Z,4.43
2022-11-21T12:42:48.260Z,4.20
2022-11-21T12:45:34.985Z,4.20
2022-11-21T12:48:40.268Z,4.03
2022-11-21T12:51:59.275Z,3.28
2022-11-21T12:55:03.834Z,3.95
2022-11-21T12:57:51.233Z,3.90
2022-11-21T13:00:29.173Z,3.47
2022-11-21T13:03:34.262Z,3.85
2022-11-21T13:06:06.270Z,3.70
2022-11-21T13:08:38.496Z,3.53
2022-11-21T13:11:27.876Z,3.53
2022-11-21T13:14:08.489Z,3.83
2022-11-21T13:16:44.359Z,3.60
2022-11-21T13:19:24.845Z,4.07
2022-11-21T13:21:55.161Z,3.72
2022-11-21T13:24:58.169Z,3.70
2022-11-21T13:27:36.727Z,3.72
2022-11-21T13:30:25.430Z,4.07
2022-11-21T13:32:55.588Z,4.22
2022-11-21T13:35:57.866Z,3.42
2022-11-21T13:38:26.876Z,3.58
2022-11-21T13:41:08.747Z,3.78
2022-11-21T13:43:37.400Z,4.00
2022-11-21T13:46:08.823Z,4.70
2022-11-21T13:49:04.225Z,3.95
2022-11-21T13:51:54.585Z,3.90
2022-11-21T13:55:05.001Z,3.78
2022-11-21T13:57:50.806Z,3.60
2022-11-21T14:05:02.437Z,3.78
2022-11-21T14:07:36.114Z,3.70
2022-11-21T14:10:19.300Z,4.05
2022-11-21T14:12:51.858Z,3.80
2022-11-21T14:15:30.641Z,4.22
2022-11-21T14:18:00.877Z,3.85
2022-11-21T14:20:51.519Z,4.00
2022-11-21T14:23:23.423Z,4.95
2022-11-21T14:28:27.881Z,4.32
2022-11-21T14:31:01.278Z,4.43
2022-11-21T14:33:33.603Z,4.05
2022-11-21T14:36:11.184Z,4.30
2022-11-21T14:38:45.284Z,4.53
2022-11-21T14:41:30.009Z,5.25
2022-11-21T14:44:17.663Z,4.80
2022-11-21T14:46:48.029Z,4.70
2022-11-21T14:49:28.559Z,4.82
2022-11-21T14:52:19.500Z,4.55
2022-11-21T14:55:28.034Z,4.45
2022-11-21T14:57:44.750Z,5.00
2022-11-21T15:03:21.860Z,4.70
2022-11-21T15:06:08.223Z,4.78
2022-11-21T15:09:18.364Z,4.97
2022-11-21T15:11:37.492Z,4.32
2022-11-21T15:14:19.708Z,4.30
2022-11-21T15:16:50.752Z,4.25
2022-11-21T15:19:23.488Z,4.07
2022-11-21T15:21:54.355Z,4.10
2022-11-21T15:24:41.139Z,4.00
2022-11-21T15:27:32.644Z,3.70
2022-11-21T15:30:25.081Z,3.72
2022-11-21T15:33:12.429Z,4.10
2022-11-21T15:35:51.652Z,3.90
2022-11-21T15:38:27.694Z,4.32
2022-11-21T15:41:23.764Z,4.28
2022-11-21T15:43:54.983Z,4.47
2022-11-21T15:46:26.135Z,4.05
2022-11-21T15:48:56.943Z,3.83
2022-11-21T15:51:59.625Z,4.07
2022-11-21T15:54:21.549Z,3.95
2022-11-21T15:56:52.337Z,4.60
2022-11-21T15:59:21.196Z,4.57
2022-11-21T16:01:49.786Z,4.07
2022-11-21T16:04:23.891Z,4.32
2022-11-21T16:06:54.194Z,4.53
2022-11-21T16:09:23.136Z,4.43
2022-11-21T16:11:53.703Z,4.80
2022-11-21T16:14:22.459Z,4.97
2022-11-21T16:16:51.033Z,4.43
2022-11-21T16:19:19.696Z,4.80
2022-11-21T16:21:48.332Z,4.70
2022-11-21T16:24:16.994Z,5.00
2022-11-21T16:26:46.941Z,4.80
2022-11-21T16:29:17.856Z,5.07
2022-11-21T16:31:47.157Z,4.70
2022-11-21T16:34:20.283Z,5.88
2022-11-21T16:36:48.930Z,5.28
2022-11-21T16:39:29.604Z,5.28
2022-11-21T16:41:58.941Z,4.93
2022-11-21T16:44:32.357Z,5.68
2022-11-21T16:47:05.187Z,4.53
2022-11-21T16:49:42.264Z,4.78
2022-11-21T16:52:10.972Z,5.15
2022-11-21T16:54:39.690Z,5.15
2022-11-21T16:57:08.451Z,5.85
2022-11-21T16:59:39.191Z,5.03
2022-11-21T17:02:08.370Z,5.55
2022-11-21T17:04:40.109Z,5.25
2022-11-21T17:07:08.907Z,5.80
2022-11-21T17:09:37.632Z,5.82
2022-11-21T17:12:07.567Z,4.88
2022-11-21T17:18:02.150Z,4.75
2022-11-21T17:20:30.793Z,5.13
2022-11-21T17:22:59.993Z,4.95
2022-11-21T17:25:28.657Z,4.40
2022-11-21T17:28:00.069Z,5.00
2022-11-21T17:30:30.935Z,4.20
2022-11-21T17:33:01.496Z,4.30
2022-11-21T17:35:30.173Z,4.32
2022-11-21T17:37:58.924Z,5.07
2022-11-21T17:40:27.584Z,4.70
2022-11-21T17:42:56.296Z,4.53
2022-11-21T17:45:24.960Z,3.88
2022-11-21T17:47:55.560Z,4.05
2022-11-21T17:50:24.268Z,4.50
2022-11-21T17:52:52.944Z,4.90
2022-11-21T17:55:21.661Z,4.57
2022-11-21T17:57:50.315Z,4.85
2022-11-21T18:00:19.325Z,4.53
2022-11-21T18:02:48.097Z,4.28
2022-11-21T18:05:18.759Z,4.93
2022-11-21T18:07:48.071Z,4.28
2022-11-21T18:10:41.714Z,5.45
2022-11-21T18:13:08.793Z,4.88
2022-11-21T18:15:37.492Z,3.63
2022-11-21T18:18:06.666Z,4.10
2022-11-21T18:20:37.345Z,4.20
2022-11-21T18:23:21.244Z,3.90
2022-11-21T18:34:37.396Z,4.20
2022-11-21T18:37:18.668Z,4.50
2022-11-21T18:40:45.280Z,4.35
2022-11-21T18:44:21.639Z,3.95
2022-11-21T18:46:56.619Z,4.28
2022-11-21T18:49:27.520Z,4.20
2022-11-21T18:51:59.021Z,4.00
2022-11-21T18:54:27.799Z,4.50
2022-11-21T18:56:56.754Z,4.53
2022-11-21T18:59:28.104Z,4.30
2022-11-21T19:01:57.757Z,4.18
2022-11-21T19:04:27.943Z,4.32
2022-11-21T19:06:58.723Z,4.50
2022-11-21T19:09:32.337Z,4.57
2022-11-21T19:12:01.685Z,4.07
2022-11-21T19:14:30.719Z,4.05
2022-11-21T19:16:59.687Z,4.88
2022-11-21T19:19:36.265Z,4.60
2022-11-21T19:22:07.152Z,4.00
2022-11-21T19:25:28.376Z,4.50
2022-11-21T19:27:58.392Z,4.57
2022-11-21T19:30:27.688Z,4.85
2022-11-21T19:32:56.722Z,4.53
2022-11-21T19:35:25.589Z,5.32
2022-11-21T19:37:56.251Z,5.00
2022-11-21T19:40:24.949Z,4.93
2022-11-21T19:42:53.747Z,5.60
2022-11-21T19:45:22.467Z,4.68
2022-11-21T19:47:56.290Z,5.20
2022-11-21T19:50:26.401Z,5.28
2022-11-21T19:52:57.006Z,5.68
2022-11-21T19:55:28.134Z,5.72
2022-11-21T19:57:56.958Z,5.95
2022-11-21T20:00:28.030Z,5.18
2022-11-21T20:02:56.671Z,5.77
2022-11-21T20:05:25.437Z,5.85
2022-11-21T20:08:02.985Z,5.55
2022-11-21T20:10:34.755Z,5.50
2022-11-21T20:13:03.732Z,5.65
2022-11-21T20:15:32.490Z,6.43
2022-11-21T20:18:01.134Z,7.70
2022-11-21T20:20:29.786Z,6.68
2022-11-21T20:23:00.483Z,6.20
2022-11-21T20:25:29.077Z,5.95
2022-11-21T20:27:57.737Z,6.20
2022-11-21T20:30:27.169Z,5.55
2022-11-21T20:32:55.799Z,6.15
2022-11-21T20:35:24.509Z,6.30
2022-11-21T20:37:53.091Z,5.88
2022-11-21T20:40:23.607Z,7.60
2022-11-21T20:42:53.979Z,5.70
2022-11-21T20:48:14.659Z,5.90
2022-11-21T20:53:51.925Z,6.20
2022-11-21T20:56:24.830Z,5.68
2022-11-21T20:58:53.441Z,5.38
2022-11-21T21:01:23.572Z,5.90
2022-11-21T21:03:52.540Z,6.25
2022-11-21T21:06:23.428Z,6.40
2022-11-21T21:08:53.027Z,4.18
2022-11-21T21:11:50.240Z,6.55
2022-11-21T21:16:42.373Z,6.28
2022-11-21T21:19:11.047Z,6.13
2022-11-21T21:21:40.975Z,6.57
2022-11-21T21:24:12.553Z,6.25
2022-11-21T21:26:45.775Z,6.65
2022-11-21T21:29:19.127Z,6.50
2022-11-21T21:31:51.660Z,6.32
2022-11-21T21:34:21.688Z,5.78
2022-11-21T21:36:50.750Z,6.22
2022-11-21T21:39:19.870Z,6.25
2022-11-21T21:41:50.499Z,5.75
2022-11-21T21:44:19.216Z,6.93
2022-11-21T21:46:47.863Z,5.63
2022-11-21T21:49:16.551Z,7.25
2022-11-21T21:51:45.147Z,6.50
2022-11-21T21:54:19.537Z,7.07
2022-11-21T21:56:51.197Z,6.40
2022-11-21T21:59:20.004Z,6.80
2022-11-21T22:01:48.786Z,6.55
2022-11-21T22:04:17.450Z,6.10
2022-11-21T22:06:46.065Z,6.65
2022-11-21T22:09:14.762Z,7.03
2022-11-21T22:11:43.472Z,6.97
2022-11-21T22:14:16.968Z,7.10
2022-11-21T22:16:45.840Z,6.80
2022-11-21T22:19:14.896Z,6.88
2022-11-21T22:21:43.648Z,6.88
2022-11-21T22:24:31.080Z,6.80
2022-11-21T22:27:00.222Z,6.80
2022-11-21T22:29:31.368Z,7.30
2022-11-21T22:32:00.328Z,7.63
2022-11-21T22:34:29.634Z,6.85
2022-11-21T22:36:58.827Z,7.45
2022-11-21T22:39:27.965Z,7.60
2022-11-21T22:41:59.847Z,7.70
2022-11-21T22:44:30.868Z,7.53
2022-11-21T22:47:00.002Z,6.57
2022-11-21T22:49:29.022Z,7.75
2022-11-21T22:51:57.999Z,7.00
2022-11-21T22:54:27.438Z,6.85
2022-11-21T22:56:56.438Z,7.43
2022-11-21T22:59:25.734Z,6.55
2022-11-21T23:01:56.298Z,6.38
2022-11-21T23:04:24.965Z,7.70
2022-11-21T23:06:53.550Z,7.07
2022-11-21T23:09:22.213Z,7.57
2022-11-21T23:11:50.928Z,6.93
2022-11-21T23:14:20.048Z,7.68
2022-11-21T23:16:48.696Z,7.18
2022-11-21T23:19:19.329Z,7.00
2022-11-21T23:21:47.961Z,7.00
2022-11-21T23:24:16.658Z,6.70
2022-11-21T23:26:45.357Z,7.18
2022-11-21T23:29:14.084Z,6.65
2022-11-21T23:31:42.750Z,7.13
2022-11-21T23:34:11.973Z,7.07
2022-11-21T23:36:42.556Z,7.43
2022-11-21T23:39:11.199Z,7.15
2022-11-21T23:41:40.025Z,7.97
2022-11-21T23:44:08.804Z,7.60
2022-11-21T23:46:37.480Z,7.93
2022-11-21T23:49:06.148Z,7.72
2022-11-21T23:51:34.858Z,7.30
2022-11-21T23:54:05.827Z,7.75
2022-11-21T23:56:34.767Z,7.40
2022-11-21T23:59:03.431Z,7.88
